createdAt,value
2022-12-31T00:03:58.046Z,1.90
2022-12-31T00:08:51.822Z,0.30
2022-12-31T00:13:43.844Z,0.57
2022-12-31T00:18:35.806Z,0.77
2022-12-31T00:23:27.467Z,0.80
2022-12-31T00:28:18.977Z,0.20
2022-12-31T00:33:11.017Z,0.33
2022-12-31T00:38:02.548Z,0.40
2022-12-31T00:42:54.972Z,1.97
2022-12-31T00:47:46.498Z,1.10
2022-12-31T00:52:38.807Z,0.30
2022-12-31T00:57:30.507Z,0.40
2022-12-31T01:02:22.224Z,0.50
2022-12-31T01:07:13.877Z,0.20
2022-12-31T01:12:05.811Z,0.20
2022-12-31T01:16:57.357Z,0.27
2022-12-31T01:21:50.990Z,0.43
2022-12-31T01:26:42.805Z,0.30
2022-12-31T01:31:37.002Z,1.33
2022-12-31T01:36:31.108Z,0.73
2022-12-31T01:41:34.215Z,1.40
2022-12-31T01:46:28.540Z,0.20
2022-12-31T01:51:22.198Z,0.30
2022-12-31T01:56:14.400Z,0.30
2022-12-31T02:01:09.629Z,0.20
2022-12-31T02:06:04.931Z,0.30
2022-12-31T02:10:56.511Z,0.70
2022-12-31T02:16:01.049Z,0.20
2022-12-31T02:21:04.955Z,0.20
2022-12-31T02:26:15.293Z,0.20
2022-12-31T02:31:13.641Z,0.77
2022-12-31T02:36:12.837Z,0.30
2022-12-31T02:41:04.645Z,0.43
2022-12-31T02:46:15.464Z,1.53
2022-12-31T02:51:51.955Z,1.57
2022-12-31T02:56:58.702Z,1.80
2022-12-31T03:02:16.392Z,0.60
2022-12-31T03:07:10.337Z,1.53
2022-12-31T03:12:21.543Z,0.50
2022-12-31T03:17:13.122Z,0.77
2022-12-31T03:22:23.962Z,1.73
2022-12-31T03:27:15.547Z,1.17
2022-12-31T03:32:07.085Z,2.20
2022-12-31T03:36:58.656Z,3.70
2022-12-31T03:41:50.214Z,0.20
2022-12-31T03:46:41.743Z,0.70
2022-12-31T04:21:54.536Z,0.50
2022-12-31T04:26:46.155Z,0.97
2022-12-31T04:31:37.725Z,2.10
2022-12-31T04:36:29.476Z,0.60
2022-12-31T04:41:21.152Z,1.07
2022-12-31T04:46:13.892Z,1.27
2022-12-31T04:51:05.903Z,1.60
2022-12-31T04:55:57.444Z,0.50
2022-12-31T05:00:51.473Z,0.60
2022-12-31T05:05:43.517Z,0.60
2022-12-31T05:10:35.156Z,0.50
2022-12-31T05:15:26.659Z,0.70
2022-12-31T05:20:18.177Z,1.83
2022-12-31T05:25:09.768Z,1.60
2022-12-31T05:30:01.499Z,1.80
2022-12-31T05:34:53.586Z,1.33
2022-12-31T05:39:45.166Z,2.87
2022-12-31T05:44:36.711Z,1.50
2022-12-31T05:49:28.305Z,1.63
2022-12-31T05:54:19.946Z,0.97
2022-12-31T05:59:11.594Z,0.30
2022-12-31T06:04:03.198Z,3.30
2022-12-31T06:08:54.813Z,1.60
2022-12-31T06:13:46.393Z,2.00
2022-12-31T06:18:38.078Z,2.40
2022-12-31T06:23:30.120Z,1.37
2022-12-31T06:28:21.724Z,1.97
2022-12-31T06:33:13.321Z,2.73
2022-12-31T06:38:05.498Z,2.07
2022-12-31T06:43:00.116Z,1.43
2022-12-31T06:47:51.810Z,2.37
2022-12-31T06:52:43.441Z,2.13
2022-12-31T06:57:35.432Z,2.77
2022-12-31T07:02:57.116Z,0.93
2022-12-31T07:08:10.069Z,3.40
2022-12-31T07:13:17.899Z,5.10
2022-12-31T07:18:34.581Z,2.20
2022-12-31T07:23:26.498Z,1.20
2022-12-31T07:28:34.375Z,2.03
2022-12-31T07:33:31.897Z,1.37
2022-12-31T07:38:37.824Z,1.17
2022-12-31T07:43:46.612Z,1.87
2022-12-31T07:48:38.364Z,0.50
2022-12-31T07:53:30.400Z,2.33
2022-12-31T07:58:26.045Z,2.23
2022-12-31T08:03:55.673Z,0.70
2022-12-31T08:09:00.584Z,1.30
2022-12-31T08:13:54.293Z,1.27
2022-12-31T08:18:46.028Z,3.10
2022-12-31T08:24:21.760Z,2.40
2022-12-31T08:29:39.955Z,1.47
2022-12-31T08:34:36.996Z,1.80
2022-12-31T08:39:35.987Z,2.67
2022-12-31T08:44:45.946Z,2.93
2022-12-31T08:49:37.706Z,1.20
2022-12-31T08:54:30.021Z,2.27
2022-12-31T08:59:29.747Z,1.77
2022-12-31T09:04:36.610Z,1.10
2022-12-31T09:09:43.559Z,1.13
2022-12-31T09:14:53.846Z,2.20
2022-12-31T09:19:45.578Z,2.73
2022-12-31T09:24:37.471Z,3.57
2022-12-31T09:29:58.358Z,1.27
2022-12-31T09:34:57.734Z,1.33
2022-12-31T09:39:49.764Z,4.20
2022-12-31T09:45:04.754Z,2.77
2022-12-31T09:50:35.449Z,2.73
2022-12-31T09:55:48.548Z,2.17
2022-12-31T10:01:08.355Z,2.07
2022-12-31T10:06:24.699Z,2.07
2022-12-31T10:11:22.292Z,1.27
2022-12-31T10:16:44.045Z,2.53
2022-12-31T10:22:14.240Z,1.90
2022-12-31T10:27:27.596Z,1.30
2022-12-31T10:33:02.697Z,1.60
2022-12-31T10:37:56.950Z,1.77
2022-12-31T10:43:10.356Z,3.43
2022-12-31T10:48:52.416Z,2.37
2022-12-31T10:53:53.108Z,1.40
2022-12-31T10:58:49.371Z,1.40
2022-12-31T11:04:02.417Z,2.67
2022-12-31T11:09:06.306Z,1.73
2022-12-31T11:14:19.611Z,2.80
2022-12-31T11:19:27.555Z,2.07
2022-12-31T11:24:46.761Z,3.27
2022-12-31T11:29:50.942Z,2.20
2022-12-31T11:34:48.470Z,2.83
2022-12-31T11:39:54.742Z,1.97
2022-12-31T11:44:57.610Z,1.67
2022-12-31T11:50:10.745Z,2.67
2022-12-31T11:55:20.930Z,3.17
2022-12-31T12:00:20.214Z,4.50
2022-12-31T12:05:15.848Z,2.40
2022-12-31T12:10:31.943Z,2.57
2022-12-31T12:15:34.890Z,2.37
2022-12-31T12:20:31.716Z,2.20
2022-12-31T12:25:26.971Z,3.10
2022-12-31T12:30:27.960Z,4.23
2022-12-31T12:35:26.188Z,6.07
2022-12-31T12:40:29.787Z,2.30
2022-12-31T12:45:39.889Z,2.57
2022-12-31T12:50:51.228Z,4.67
2022-12-31T12:56:24.619Z,1.83
2022-12-31T13:01:47.691Z,4.30
2022-12-31T13:07:07.304Z,2.03
2022-12-31T13:12:16.400Z,1.90
2022-12-31T13:17:32.156Z,2.93
2022-12-31T13:22:33.458Z,3.70
2022-12-31T13:27:39.086Z,2.93
2022-12-31T13:32:45.641Z,3.30
2022-12-31T13:37:42.093Z,3.87
2022-12-31T13:42:45.715Z,3.43
2022-12-31T13:47:45.116Z,2.13
2022-12-31T13:52:46.337Z,3.17
2022-12-31T13:58:01.726Z,2.20
2022-12-31T14:03:15.378Z,1.93
2022-12-31T14:08:07.067Z,1.83
2022-12-31T14:13:18.038Z,3.03
2022-12-31T14:18:35.333Z,2.23
2022-12-31T14:23:45.328Z,2.60
2022-12-31T14:28:47.119Z,3.43
2022-12-31T14:33:56.367Z,3.07
2022-12-31T14:39:08.519Z,2.73
2022-12-31T14:44:18.665Z,3.20
2022-12-31T14:49:50.188Z,4.03
2022-12-31T14:54:42.319Z,2.33
2022-12-31T14:59:40.102Z,3.43
2022-12-31T15:04:43.729Z,3.70
2022-12-31T15:09:56.687Z,3.03
2022-12-31T15:15:00.901Z,3.27
2022-12-31T15:20:05.358Z,1.70
2022-12-31T15:24:57.922Z,1.83
2022-12-31T15:29:49.592Z,3.10
2022-12-31T15:34:41.210Z,4.10
2022-12-31T15:39:32.792Z,4.57
2022-12-31T15:44:30.551Z,1.80
2022-12-31T15:49:24.140Z,2.70
2022-12-31T15:54:30.742Z,5.97
2022-12-31T15:59:24.527Z,4.67
2022-12-31T16:04:39.303Z,2.43
2022-12-31T16:09:34.761Z,3.23
2022-12-31T16:14:37.798Z,4.03
2022-12-31T16:19:43.619Z,2.87
2022-12-31T16:24:48.917Z,3.37
2022-12-31T16:29:55.848Z,3.77
2022-12-31T16:34:47.651Z,2.00
2022-12-31T16:39:58.106Z,2.63
2022-12-31T16:44:51.337Z,3.07
2022-12-31T16:49:43.336Z,2.53
2022-12-31T16:54:40.323Z,2.87
2022-12-31T16:59:45.452Z,3.97
2022-12-31T17:04:41.496Z,5.23
2022-12-31T17:09:38.481Z,1.67
2022-12-31T17:14:30.460Z,5.20
2022-12-31T17:19:47.208Z,2.47
2022-12-31T17:24:39.949Z,2.97
2022-12-31T17:29:33.540Z,3.37
2022-12-31T17:34:40.074Z,3.37
2022-12-31T17:39:48.176Z,4.07
2022-12-31T17:44:43.439Z,4.80
2022-12-31T17:49:36.728Z,3.67
2022-12-31T17:54:28.277Z,3.73
2022-12-31T17:59:29.694Z,2.97
2022-12-31T18:04:21.414Z,3.50
2022-12-31T18:09:13.091Z,5.33
2022-12-31T18:14:04.856Z,4.33
2022-12-31T18:18:58.874Z,3.07
2022-12-31T18:23:50.711Z,3.63
2022-12-31T18:28:42.342Z,3.47
2022-12-31T18:33:33.910Z,5.83
2022-12-31T18:38:25.469Z,7.13
2022-12-31T18:43:18.432Z,5.53
2022-12-31T18:48:10.168Z,3.93
2022-12-31T18:53:01.774Z,3.73
2022-12-31T18:57:53.376Z,4.70
2022-12-31T19:02:45.026Z,3.50
2022-12-31T19:07:36.567Z,9.67
2022-12-31T19:12:28.235Z,4.60
2022-12-31T19:17:21.529Z,5.60
2022-12-31T19:22:15.328Z,4.50
2022-12-31T19:27:06.950Z,4.50
2022-12-31T19:32:01.098Z,5.00
2022-12-31T19:36:52.883Z,3.60
2022-12-31T19:41:45.367Z,4.43
2022-12-31T19:46:36.943Z,7.63
2022-12-31T19:51:28.510Z,4.63
2022-12-31T19:56:20.319Z,5.50
2022-12-31T20:01:22.247Z,4.63
2022-12-31T20:06:14.283Z,9.93
2022-12-31T20:11:14.636Z,9.63
2022-12-31T20:16:08.744Z,7.17
2022-12-31T20:21:00.599Z,7.30
2022-12-31T20:25:59.308Z,5.50
2022-12-31T20:30:50.940Z,3.30
2022-12-31T20:35:42.517Z,7.60
2022-12-31T20:40:34.229Z,7.23
2022-12-31T20:45:25.923Z,4.90
2022-12-31T20:50:17.992Z,5.70
2022-12-31T20:55:11.212Z,7.83
2022-12-31T21:00:04.309Z,5.27
2022-12-31T21:04:56.013Z,7.30
2022-12-31T21:09:47.772Z,3.83
2022-12-31T21:14:44.528Z,4.93
2022-12-31T21:19:36.448Z,7.07
2022-12-31T21:24:28.040Z,5.83
2022-12-31T21:29:19.848Z,6.40
2022-12-31T21:34:11.512Z,5.60
2022-12-31T21:39:03.503Z,4.43
2022-12-31T21:43:55.167Z,5.63
2022-12-31T21:48:46.743Z,4.77
2022-12-31T21:53:38.597Z,6.47
2022-12-31T21:58:30.851Z,4.77
2022-12-31T22:03:27.348Z,5.23
2022-12-31T22:08:20.881Z,8.53
2022-12-31T22:13:13.738Z,4.83
2022-12-31T22:18:05.379Z,3.33
2022-12-31T22:22:56.968Z,4.13
2022-12-31T22:28:04.399Z,6.40
2022-12-31T22:33:00.356Z,6.77
2022-12-31T22:37:57.536Z,3.67
2022-12-31T22:42:51.982Z,4.90
2022-12-31T22:47:43.491Z,5.07
2022-12-31T22:52:35.055Z,8.90
2022-12-31T22:57:26.674Z,16.60
2022-12-31T23:02:18.367Z,33.73
2022-12-31T23:07:09.864Z,26.83
2022-12-31T23:12:02.931Z,44.00
2022-12-31T23:17:29.653Z,37.07
2022-12-31T23:22:42.169Z,24.87
2022-12-31T23:27:33.771Z,31.40
2022-12-31T23:32:25.389Z,28.97
2022-12-31T23:37:16.958Z,29.20
2022-12-31T23:42:08.736Z,17.47
2022-12-31T23:47:00.353Z,18.97
2022-12-31T23:51:52.009Z,17.63
2022-12-31T23:56:43.645Z,15.70
